createdAt,value
2019-02-03T00:02:21.177Z,6.13
2019-02-03T00:07:27.169Z,6.02
2019-02-03T00:12:32.967Z,5.92
2019-02-03T00:17:38.339Z,5.90
2019-02-03T00:22:44.360Z,5.90
2019-02-03T00:27:50.005Z,5.91
2019-02-03T00:32:57.004Z,5.92
2019-02-03T00:38:03.408Z,5.93
2019-02-03T00:43:09.478Z,5.90
2019-02-03T00:48:15.551Z,5.83
2019-02-03T00:53:21.219Z,5.79
2019-02-03T00:58:26.792Z,5.77
2019-02-03T01:03:32.385Z,5.67
2019-02-03T01:08:38.625Z,5.62
2019-02-03T01:13:44.382Z,5.60
2019-02-03T01:18:50.376Z,5.57
2019-02-03T01:23:56.707Z,5.55
2019-02-03T01:29:02.830Z,5.53
2019-02-03T01:34:08.451Z,5.48
2019-02-03T01:39:14.677Z,5.39
2019-02-03T01:44:23.120Z,5.15
2019-02-03T01:49:28.300Z,4.91
2019-02-03T01:54:34.182Z,4.82
2019-02-03T01:59:39.997Z,4.88
2019-02-03T02:04:45.731Z,4.98
2019-02-03T02:09:51.770Z,5.13
2019-02-03T02:14:57.390Z,5.24
2019-02-03T02:20:03.176Z,5.31
2019-02-03T02:25:09.224Z,5.36
2019-02-03T02:30:17.884Z,5.41
2019-02-03T02:35:23.802Z,5.42
2019-02-03T02:40:29.597Z,5.46
2019-02-03T02:45:35.808Z,5.45
2019-02-03T02:50:44.261Z,5.44
2019-02-03T02:55:50.028Z,5.43
2019-02-03T03:00:56.089Z,5.42
2019-02-03T03:06:01.693Z,5.39
2019-02-03T03:11:07.354Z,5.41
2019-02-03T03:16:12.786Z,5.44
2019-02-03T03:21:18.222Z,5.45
2019-02-03T03:26:23.878Z,5.46
2019-02-03T03:31:29.594Z,5.45
2019-02-03T03:36:35.217Z,5.46
2019-02-03T03:41:40.951Z,5.45
2019-02-03T03:46:46.748Z,5.45
2019-02-03T03:51:52.276Z,5.47
2019-02-03T03:56:57.988Z,5.48
2019-02-03T04:02:03.917Z,5.48
2019-02-03T04:07:09.676Z,5.48
2019-02-03T04:12:18.315Z,5.47
2019-02-03T04:17:24.042Z,5.48
2019-02-03T04:22:30.007Z,5.50
2019-02-03T04:27:35.756Z,5.52
2019-02-03T04:32:41.515Z,5.58
2019-02-03T04:37:47.576Z,5.61
2019-02-03T04:42:53.295Z,5.66
2019-02-03T04:47:59.408Z,5.69
2019-02-03T04:53:05.443Z,5.72
2019-02-03T04:58:11.419Z,5.72
2019-02-03T05:03:17.410Z,5.75
2019-02-03T05:08:23.668Z,5.78
2019-02-03T05:13:29.736Z,5.78
2019-02-03T05:18:35.475Z,5.80
2019-02-03T05:23:41.297Z,5.81
2019-02-03T05:28:47.581Z,5.80
2019-02-03T05:33:53.121Z,5.79
2019-02-03T05:38:58.588Z,5.77
2019-02-03T05:44:04.520Z,5.73
2019-02-03T05:49:10.219Z,5.65
2019-02-03T05:54:16.599Z,5.57
2019-02-03T05:59:22.457Z,5.46
2019-02-03T06:04:28.052Z,5.27
2019-02-03T06:09:36.708Z,5.17
2019-02-03T06:14:41.824Z,5.12
2019-02-03T06:19:47.723Z,5.11
2019-02-03T06:24:53.325Z,5.09
2019-02-03T06:29:59.197Z,5.07
2019-02-03T06:35:04.884Z,5.06
2019-02-03T06:40:10.669Z,5.11
2019-02-03T06:45:25.440Z,5.19
2019-02-03T06:50:31.368Z,5.28
2019-02-03T06:55:37.685Z,5.35
2019-02-03T07:00:44.184Z,5.38
2019-02-03T07:05:50.459Z,5.43
2019-02-03T07:10:56.119Z,5.49
2019-02-03T07:16:02.038Z,5.52
2019-02-03T07:21:08.209Z,5.56
2019-02-03T07:26:13.872Z,5.52
2019-02-03T07:31:19.490Z,5.50
2019-02-03T07:36:24.904Z,5.49
2019-02-03T07:41:30.340Z,5.51
2019-02-03T07:46:35.810Z,5.54
2019-02-03T07:51:41.615Z,5.56
2019-02-03T07:56:47.646Z,5.66
2019-02-03T08:01:53.179Z,5.75
2019-02-03T08:06:58.870Z,5.82
2019-02-03T08:12:04.810Z,5.88
2019-02-03T08:17:10.411Z,5.96
2019-02-03T08:22:15.872Z,6.06
2019-02-03T08:27:21.397Z,6.06
2019-02-03T08:32:27.110Z,6.12
2019-02-03T08:37:32.683Z,6.18
2019-02-03T08:42:38.354Z,6.31
2019-02-03T08:47:45.509Z,6.42
2019-02-03T08:52:51.604Z,6.51
2019-02-03T08:57:58.012Z,6.62
2019-02-03T09:03:03.567Z,6.75
2019-02-03T09:08:09.522Z,6.88
2019-02-03T09:13:15.124Z,7.11
2019-02-03T09:18:20.967Z,7.32
2019-02-03T09:23:26.422Z,7.51
2019-02-03T09:28:31.894Z,7.64
2019-02-03T09:33:37.576Z,8.02
2019-02-03T09:38:43.275Z,8.93
2019-02-03T09:43:48.816Z,9.26
2019-02-03T09:48:54.244Z,9.18
2019-02-03T09:53:59.730Z,9.27
2019-02-03T09:59:05.583Z,9.53
2019-02-03T10:04:11.306Z,9.51
2019-02-03T10:09:16.968Z,9.84
2019-02-03T10:14:22.789Z,10.33
2019-02-03T10:19:28.541Z,10.42
2019-02-03T10:24:42.032Z,10.61
2019-02-03T10:29:41.817Z,10.62
2019-02-03T10:34:47.584Z,10.61
2019-02-03T10:39:53.055Z,10.75
2019-02-03T10:44:58.525Z,10.90
2019-02-03T10:50:04.024Z,10.60
2019-02-03T10:55:09.662Z,10.44
2019-02-03T11:00:21.896Z,10.19
2019-02-03T11:05:33.651Z,10.04
2019-02-03T11:10:39.381Z,9.89
2019-02-03T11:15:45.015Z,9.74
2019-02-03T11:20:52.666Z,9.67
2019-02-03T11:26:00.109Z,9.47
2019-02-03T11:31:05.581Z,9.58
2019-02-03T11:36:11.228Z,9.90
2019-02-03T11:41:16.994Z,10.10
2019-02-03T11:46:22.785Z,10.33
2019-02-03T11:51:28.548Z,10.35
2019-02-03T11:56:34.618Z,10.38
2019-02-03T12:01:40.116Z,10.36
2019-02-03T12:06:46.099Z,10.35
2019-02-03T12:12:00.838Z,10.25
2019-02-03T12:16:58.932Z,9.93
2019-02-03T12:22:04.836Z,9.76
2019-02-03T12:27:10.354Z,9.55
2019-02-03T12:32:15.891Z,9.58
2019-02-03T12:37:21.425Z,9.96
2019-02-03T12:42:28.007Z,10.07
2019-02-03T12:47:33.644Z,10.15
2019-02-03T12:52:39.252Z,10.09
2019-02-03T12:57:46.661Z,9.86
2019-02-03T13:02:51.946Z,9.48
2019-02-03T13:07:57.797Z,9.31
2019-02-03T13:13:03.200Z,9.58
2019-02-03T13:18:09.184Z,9.87
2019-02-03T13:23:16.556Z,10.11
2019-02-03T13:28:22.088Z,10.15
2019-02-03T13:33:27.918Z,10.34
2019-02-03T13:38:33.397Z,10.66
2019-02-03T13:43:38.946Z,10.88
2019-02-03T13:48:44.882Z,10.70
2019-02-03T13:53:50.519Z,10.37
2019-02-03T13:58:56.039Z,10.02
2019-02-03T14:04:01.575Z,9.88
2019-02-03T14:09:09.890Z,9.76
2019-02-03T14:14:15.520Z,9.73
2019-02-03T14:19:21.155Z,9.67
2019-02-03T14:24:27.225Z,9.61
2019-02-03T14:29:32.679Z,9.47
2019-02-03T14:34:39.048Z,9.33
2019-02-03T14:39:45.448Z,9.44
2019-02-03T14:44:50.983Z,9.59
2019-02-03T14:49:56.545Z,9.65
2019-02-03T14:55:02.247Z,9.77
2019-02-03T15:00:41.532Z,9.87
2019-02-03T15:05:47.485Z,9.80
2019-02-03T15:10:53.107Z,9.71
2019-02-03T15:15:59.933Z,9.59
2019-02-03T15:21:05.913Z,9.42
2019-02-03T15:26:11.378Z,9.33
2019-02-03T15:31:16.903Z,9.26
2019-02-03T15:36:22.458Z,9.20
2019-02-03T15:41:32.939Z,9.13
2019-02-03T15:46:38.835Z,9.08
2019-02-03T15:51:44.341Z,8.95
2019-02-03T15:56:50.212Z,8.83
2019-02-03T16:01:56.679Z,8.72
2019-02-03T16:07:02.151Z,8.64
2019-02-03T16:12:08.090Z,8.57
2019-02-03T16:17:13.488Z,8.48
2019-02-03T16:22:19.111Z,8.41
2019-02-03T16:27:24.959Z,8.35
2019-02-03T16:32:30.469Z,8.34
2019-02-03T16:37:36.095Z,8.31
2019-02-03T16:42:42.047Z,8.24
2019-02-03T16:47:47.766Z,8.15
2019-02-03T16:52:53.232Z,8.11
2019-02-03T16:57:58.679Z,8.06
2019-02-03T17:03:04.145Z,7.91
2019-02-03T17:08:09.843Z,7.71
2019-02-03T17:13:15.423Z,7.54
2019-02-03T17:18:21.036Z,7.46
2019-02-03T17:23:26.623Z,7.31
2019-02-03T17:28:32.447Z,7.14
2019-02-03T17:33:37.909Z,6.96
2019-02-03T17:38:43.319Z,6.84
2019-02-03T17:43:49.065Z,6.74
2019-02-03T17:48:54.741Z,6.62
2019-02-03T17:54:00.207Z,6.46
2019-02-03T17:59:07.768Z,6.44
2019-02-03T18:04:13.925Z,6.24
2019-02-03T18:09:19.623Z,6.16
2019-02-03T18:14:25.085Z,6.10
2019-02-03T18:19:30.604Z,6.00
2019-02-03T18:24:36.367Z,5.91
2019-02-03T18:29:41.726Z,5.83
2019-02-03T18:34:47.106Z,5.70
2019-02-03T18:39:52.391Z,5.60
2019-02-03T18:44:57.760Z,5.50
2019-02-03T18:50:03.139Z,5.42
2019-02-03T18:55:11.024Z,5.32
2019-02-03T19:00:20.627Z,5.25
2019-02-03T19:05:28.872Z,5.15
2019-02-03T19:10:34.325Z,5.08
2019-02-03T19:15:39.628Z,5.01
2019-02-03T19:20:45.086Z,4.94
2019-02-03T19:26:00.522Z,4.88
2019-02-03T19:31:09.186Z,4.83
2019-02-03T19:36:14.514Z,4.76
2019-02-03T19:41:19.859Z,4.68
2019-02-03T19:46:25.206Z,4.62
2019-02-03T19:51:30.800Z,4.57
2019-02-03T19:56:36.115Z,4.53
2019-02-03T20:01:41.606Z,4.47
2019-02-03T20:06:46.938Z,4.42
2019-02-03T20:11:52.434Z,4.39
2019-02-03T20:16:57.804Z,4.36
2019-02-03T20:22:03.508Z,4.33
2019-02-03T20:27:08.888Z,4.30
2019-02-03T20:32:14.256Z,4.26
2019-02-03T20:37:19.740Z,4.25
2019-02-03T20:42:25.343Z,4.30
2019-02-03T20:47:30.954Z,4.38
2019-02-03T20:52:36.236Z,4.45
2019-02-03T20:57:41.538Z,4.46
2019-02-03T21:02:47.335Z,4.42
2019-02-03T21:07:52.697Z,4.38
2019-02-03T21:13:10.094Z,4.31
2019-02-03T21:18:07.755Z,4.25
2019-02-03T21:23:12.779Z,4.16
2019-02-03T21:28:18.076Z,4.09
2019-02-03T21:33:23.614Z,4.05
2019-02-03T21:38:28.921Z,4.04
2019-02-03T21:43:34.194Z,3.99
2019-02-03T21:48:39.470Z,3.93
2019-02-03T21:53:44.768Z,3.84
2019-02-03T21:58:50.193Z,3.78
2019-02-03T22:03:55.545Z,3.73
2019-02-03T22:09:01.035Z,3.65
2019-02-03T22:14:06.718Z,3.61
2019-02-03T22:19:11.992Z,3.58
2019-02-03T22:24:17.371Z,3.56
2019-02-03T22:29:22.731Z,3.56
2019-02-03T22:34:28.070Z,3.53
2019-02-03T22:39:33.739Z,3.47
2019-02-03T22:44:39.151Z,3.40
2019-02-03T22:49:44.459Z,3.34
2019-02-03T22:54:49.853Z,3.30
2019-02-03T22:59:55.216Z,3.22
2019-02-03T23:05:00.579Z,3.20
2019-02-03T23:10:06.471Z,3.15
2019-02-03T23:15:11.828Z,3.14
2019-02-03T23:20:17.309Z,3.15
2019-02-03T23:25:22.678Z,3.17
2019-02-03T23:30:28.042Z,3.19
2019-02-03T23:35:33.740Z,3.17
2019-02-03T23:40:39.132Z,3.17
2019-02-03T23:45:44.423Z,3.19
2019-02-03T23:50:49.757Z,3.20
2019-02-03T23:55:55.084Z,3.22
